createdAt,value
2022-10-23T00:00:19.467Z,14.80
2022-10-23T00:02:52.353Z,14.65
2022-10-23T00:05:20.356Z,14.63
2022-10-23T00:07:53.898Z,13.93
2022-10-23T00:10:21.052Z,14.30
2022-10-23T00:12:47.998Z,15.00
2022-10-23T00:15:15.122Z,14.23
2022-10-23T00:17:42.107Z,14.63
2022-10-23T00:20:09.646Z,13.70
2022-10-23T00:22:36.777Z,14.20
2022-10-23T00:25:07.996Z,14.35
2022-10-23T00:27:34.861Z,13.32
2022-10-23T00:30:02.014Z,13.98
2022-10-23T00:32:28.994Z,13.43
2022-10-23T00:34:55.916Z,14.15
2022-10-23T00:37:22.717Z,13.73
2022-10-23T00:39:49.590Z,13.57
2022-10-23T00:42:17.458Z,13.20
2022-10-23T00:44:44.178Z,15.60
2022-10-23T00:47:11.574Z,14.82
2022-10-23T00:49:40.707Z,12.95
2022-10-23T00:52:10.459Z,13.10
2022-10-23T00:54:40.681Z,13.80
2022-10-23T00:57:11.552Z,13.35
2022-10-23T00:59:38.503Z,13.63
2022-10-23T01:02:06.696Z,13.52
2022-10-23T01:04:33.633Z,15.00
2022-10-23T01:07:03.604Z,13.48
2022-10-23T01:09:48.601Z,12.75
2022-10-23T01:14:52.225Z,11.55
2022-10-23T01:17:31.103Z,12.80
2022-10-23T01:20:25.530Z,12.95
2022-10-23T01:23:17.462Z,12.70
2022-10-23T01:26:07.310Z,13.75
2022-10-23T01:28:43.946Z,12.88
2022-10-23T01:31:13.745Z,12.77
2022-10-23T01:33:47.498Z,12.77
2022-10-23T01:36:19.331Z,12.35
2022-10-23T01:39:07.715Z,13.00
2022-10-23T01:41:44.620Z,12.45
2022-10-23T01:44:22.273Z,12.38
2022-10-23T01:46:49.635Z,11.82
2022-10-23T01:49:16.669Z,13.00
2022-10-23T01:51:46.787Z,13.35
2022-10-23T01:54:13.912Z,13.18
2022-10-23T01:56:43.954Z,13.50
2022-10-23T01:59:13.433Z,11.77
2022-10-23T02:01:42.141Z,12.35
2022-10-23T02:04:10.135Z,12.13
2022-10-23T02:06:37.000Z,13.38
2022-10-23T02:09:04.943Z,12.95
2022-10-23T02:11:31.928Z,11.80
2022-10-23T02:14:29.660Z,12.43
2022-10-23T02:16:57.991Z,13.27
2022-10-23T02:19:43.008Z,13.35
2022-10-23T02:22:31.328Z,12.45
2022-10-23T02:25:09.065Z,12.63
2022-10-23T02:27:47.247Z,11.85
2022-10-23T02:30:16.273Z,12.07
2022-10-23T02:32:49.264Z,12.25
2022-10-23T02:35:18.589Z,12.57
2022-10-23T02:37:55.435Z,13.07
2022-10-23T02:40:30.839Z,13.27
2022-10-23T02:42:59.654Z,12.80
2022-10-23T02:48:18.661Z,13.13
2022-10-23T02:51:07.832Z,13.57
2022-10-23T02:53:40.651Z,12.30
2022-10-23T02:56:26.323Z,14.18
2022-10-23T02:59:00.643Z,12.77
2022-10-23T03:01:36.468Z,14.38
2022-10-23T03:04:03.852Z,13.27
2022-10-23T03:06:32.564Z,12.80
2022-10-23T03:09:04.933Z,14.05
2022-10-23T03:11:31.825Z,12.98
2022-10-23T03:13:58.645Z,13.13
2022-10-23T03:16:25.607Z,12.70
2022-10-23T03:18:54.809Z,14.02
2022-10-23T03:21:21.820Z,12.90
2022-10-23T03:23:52.360Z,13.27
2022-10-23T03:26:26.341Z,16.40
2022-10-23T03:28:53.477Z,12.98
2022-10-23T03:31:21.733Z,12.65
2022-10-23T03:33:54.089Z,12.93
2022-10-23T03:36:21.902Z,13.75
2022-10-23T03:38:48.841Z,13.65
2022-10-23T03:41:15.853Z,14.02
2022-10-23T03:43:42.725Z,13.60
2022-10-23T03:46:12.682Z,13.95
2022-10-23T03:48:39.607Z,12.80
2022-10-23T03:51:06.863Z,13.80
2022-10-23T03:53:34.017Z,14.10
2022-10-23T03:56:03.614Z,14.85
2022-10-23T03:58:31.539Z,13.07
2022-10-23T04:00:58.649Z,13.52
2022-10-23T04:03:25.625Z,14.13
2022-10-23T04:05:52.577Z,13.75
2022-10-23T04:08:21.723Z,14.50
2022-10-23T04:10:51.688Z,13.95
2022-10-23T04:13:21.794Z,13.75
2022-10-23T04:15:49.695Z,12.98
2022-10-23T04:18:17.079Z,12.95
2022-10-23T04:20:44.197Z,14.10
2022-10-23T04:23:11.198Z,13.98
2022-10-23T04:25:41.012Z,13.20
2022-10-23T04:28:08.509Z,13.77
2022-10-23T04:30:38.449Z,13.40
2022-10-23T04:33:05.887Z,13.27
2022-10-23T04:35:33.680Z,12.35
2022-10-23T04:38:00.507Z,13.13
2022-10-23T04:40:27.346Z,14.32
2022-10-23T04:42:54.939Z,14.05
2022-10-23T04:45:22.161Z,13.02
2022-10-23T04:47:49.126Z,13.40
2022-10-23T04:50:16.906Z,12.02
2022-10-23T04:53:02.073Z,12.93
2022-10-23T04:55:37.715Z,13.73
2022-10-23T04:58:13.306Z,12.77
2022-10-23T05:00:41.314Z,12.15
2022-10-23T05:03:09.226Z,15.25
2022-10-23T05:05:40.043Z,15.05
2022-10-23T05:08:28.192Z,12.00
2022-10-23T05:11:13.628Z,13.27
2022-10-23T05:13:44.892Z,12.40
2022-10-23T05:16:13.145Z,15.27
2022-10-23T05:18:45.462Z,13.13
2022-10-23T05:21:16.342Z,13.25
2022-10-23T05:23:43.544Z,13.25
2022-10-23T05:26:10.439Z,12.30
2022-10-23T05:28:38.979Z,13.80
2022-10-23T05:31:05.987Z,12.27
2022-10-23T05:33:35.385Z,13.10
2022-10-23T05:36:02.281Z,13.45
2022-10-23T05:38:29.753Z,13.43
2022-10-23T05:40:56.727Z,14.23
2022-10-23T05:43:24.045Z,13.68
2022-10-23T05:46:06.886Z,14.02
2022-10-23T05:48:52.524Z,14.10
2022-10-23T05:51:23.236Z,14.23
2022-10-23T05:53:58.353Z,14.40
2022-10-23T05:56:34.352Z,14.23
2022-10-23T05:59:07.885Z,13.40
2022-10-23T06:02:00.678Z,12.77
2022-10-23T06:04:42.225Z,13.25
2022-10-23T06:07:18.096Z,13.00
2022-10-23T06:09:46.247Z,13.35
2022-10-23T06:12:13.333Z,14.10
2022-10-23T06:14:43.052Z,13.80
2022-10-23T06:17:10.174Z,13.48
2022-10-23T06:19:41.749Z,13.55
2022-10-23T06:22:08.652Z,12.18
2022-10-23T06:24:52.820Z,14.20
2022-10-23T06:27:24.519Z,13.35
2022-10-23T06:29:51.443Z,13.90
2022-10-23T06:32:18.722Z,13.98
2022-10-23T06:34:57.876Z,14.25
2022-10-23T06:37:25.927Z,13.02
2022-10-23T06:40:05.935Z,11.40
2022-10-23T06:42:58.834Z,12.68
2022-10-23T06:45:55.147Z,12.50
2022-10-23T06:48:54.264Z,12.75
2022-10-23T06:51:29.592Z,13.38
2022-10-23T06:53:56.995Z,12.00
2022-10-23T06:56:49.954Z,12.00
2022-10-23T06:59:30.333Z,12.73
2022-10-23T07:01:57.399Z,12.50
2022-10-23T07:04:24.290Z,12.90
2022-10-23T07:06:51.206Z,12.70
2022-10-23T07:09:24.645Z,11.85
2022-10-23T07:11:51.691Z,14.13
2022-10-23T07:14:21.071Z,12.55
2022-10-23T07:16:48.009Z,12.32
2022-10-23T07:19:15.006Z,13.85
2022-10-23T07:21:56.144Z,11.93
2022-10-23T07:24:48.323Z,12.25
2022-10-23T07:27:26.221Z,11.43
2022-10-23T07:29:58.491Z,11.48
2022-10-23T07:32:28.874Z,11.05
2022-10-23T07:38:00.197Z,11.30
2022-10-23T07:40:29.943Z,12.30
2022-10-23T07:42:57.309Z,10.30
2022-10-23T07:45:25.270Z,11.38
2022-10-23T07:47:53.171Z,11.27
2022-10-23T07:50:23.486Z,10.13
2022-10-23T07:52:50.412Z,10.88
2022-10-23T07:55:17.817Z,10.13
2022-10-23T07:57:49.023Z,10.43
2022-10-23T08:00:36.167Z,10.10
2022-10-23T08:03:12.793Z,10.25
2022-10-23T08:05:40.086Z,66.57
2022-10-23T08:08:06.887Z,892.97
2022-10-23T08:10:34.282Z,809.70
2022-10-23T08:13:01.426Z,742.03
2022-10-23T08:15:49.308Z,657.15
2022-10-23T08:18:36.129Z,630.03
2022-10-23T08:21:03.508Z,602.22
2022-10-23T08:23:30.430Z,539.80
2022-10-23T08:26:01.318Z,520.63
2022-10-23T08:28:31.055Z,479.25
2022-10-23T08:30:59.904Z,471.63
2022-10-23T08:33:27.271Z,462.10
2022-10-23T08:35:54.102Z,430.83
2022-10-23T08:38:28.793Z,421.35
2022-10-23T08:40:55.797Z,412.27
2022-10-23T08:43:35.318Z,390.00
2022-10-23T08:46:17.315Z,366.98
2022-10-23T08:49:15.526Z,345.35
2022-10-23T08:51:47.607Z,330.98
2022-10-23T08:54:16.260Z,305.73
2022-10-23T08:56:44.432Z,296.58
2022-10-23T08:59:20.356Z,238.90
2022-10-23T09:01:49.663Z,242.73
2022-10-23T09:04:16.604Z,257.40
2022-10-23T09:06:46.659Z,218.77
2022-10-23T09:09:35.260Z,213.07
2022-10-23T09:12:09.715Z,214.57
2022-10-23T09:15:04.340Z,195.32
2022-10-23T09:17:31.117Z,173.73
2022-10-23T09:20:21.068Z,152.20
2022-10-23T09:23:01.138Z,143.85
2022-10-23T09:25:38.176Z,153.90
2022-10-23T09:28:05.888Z,140.63
2022-10-23T09:30:35.165Z,132.68
2022-10-23T09:33:22.184Z,119.55
2022-10-23T09:35:53.048Z,142.93
2022-10-23T09:38:31.288Z,130.00
2022-10-23T09:41:00.337Z,124.75
2022-10-23T09:43:27.724Z,102.20
2022-10-23T09:46:02.852Z,103.78
2022-10-23T09:48:30.484Z,97.00
2022-10-23T09:50:59.569Z,89.90
2022-10-23T09:53:40.870Z,94.93
2022-10-23T09:56:24.764Z,79.90
2022-10-23T09:59:02.617Z,77.87
2022-10-23T10:01:31.230Z,87.50
2022-10-23T10:04:15.211Z,79.88
2022-10-23T10:09:15.523Z,69.30
2022-10-23T10:11:51.872Z,58.55
2022-10-23T10:14:39.804Z,68.60
2022-10-23T10:17:24.268Z,61.78
2022-10-23T10:20:07.229Z,61.53
2022-10-23T10:23:01.959Z,52.30
2022-10-23T10:25:47.442Z,55.83
2022-10-23T10:28:25.672Z,50.30
2022-10-23T10:31:05.722Z,52.50
2022-10-23T10:34:03.594Z,48.67
2022-10-23T10:36:57.415Z,44.35
2022-10-23T10:39:48.097Z,35.13
2022-10-23T10:42:33.433Z,47.58
2022-10-23T10:45:18.715Z,45.15
2022-10-23T10:48:04.038Z,38.70
2022-10-23T10:50:51.360Z,33.90
2022-10-23T10:53:57.851Z,35.40
2022-10-23T10:56:26.257Z,38.13
2022-10-23T10:58:54.724Z,28.23
2022-10-23T11:01:29.007Z,24.65
2022-10-23T11:04:13.579Z,29.83
2022-10-23T11:06:40.548Z,25.88
2022-10-23T11:09:26.897Z,28.65
2022-10-23T11:11:53.845Z,29.27
2022-10-23T11:14:25.303Z,29.13
2022-10-23T11:16:53.620Z,21.83
2022-10-23T11:19:29.034Z,24.95
2022-10-23T11:22:01.763Z,23.35
2022-10-23T11:24:51.478Z,23.42
2022-10-23T11:28:01.713Z,24.58
2022-10-23T11:30:46.659Z,20.05
2022-10-23T11:33:33.896Z,20.00
2022-10-23T11:36:13.146Z,24.00
2022-10-23T11:38:40.268Z,24.35
2022-10-23T11:41:29.542Z,16.70
2022-10-23T11:44:01.392Z,19.88
2022-10-23T11:46:35.999Z,15.38
2022-10-23T11:49:06.017Z,16.65
2022-10-23T11:51:37.474Z,15.93
2022-10-23T11:54:28.708Z,20.90
2022-10-23T11:57:10.362Z,17.70
2022-10-23T11:59:49.871Z,14.57
2022-10-23T12:02:39.918Z,16.05
2022-10-23T12:05:25.627Z,15.90
2022-10-23T12:07:59.918Z,18.95
2022-10-23T12:10:29.965Z,17.50
2022-10-23T12:13:01.679Z,12.90
2022-10-23T12:15:28.525Z,14.63
2022-10-23T12:17:56.099Z,13.55
2022-10-23T12:20:31.796Z,12.65
2022-10-23T12:23:23.523Z,12.70
2022-10-23T12:25:50.300Z,13.18
2022-10-23T12:28:32.235Z,13.75
2022-10-23T12:31:21.122Z,13.00
2022-10-23T12:34:10.413Z,12.85
2022-10-23T12:36:49.275Z,13.27
2022-10-23T12:39:29.158Z,15.40
2022-10-23T12:41:56.109Z,10.98
2022-10-23T12:44:24.331Z,8.68
2022-10-23T12:46:56.921Z,8.93
2022-10-23T12:49:25.541Z,11.50
2022-10-23T12:52:16.029Z,10.27
2022-10-23T12:54:42.971Z,11.75
2022-10-23T12:57:27.416Z,9.88
2022-10-23T13:00:10.335Z,12.25
2022-10-23T13:02:37.278Z,10.43
2022-10-23T13:05:07.349Z,10.77
2022-10-23T13:07:37.177Z,11.95
2022-10-23T13:10:05.267Z,8.07
2022-10-23T13:12:35.867Z,10.60
2022-10-23T13:15:09.027Z,10.55
2022-10-23T13:17:36.946Z,11.80
2022-10-23T13:20:18.896Z,13.45
2022-10-23T13:22:50.803Z,12.32
2022-10-23T13:25:31.153Z,10.82
2022-10-23T13:28:21.295Z,13.65
2022-10-23T13:31:01.132Z,12.90
2022-10-23T13:33:38.387Z,9.07
2022-10-23T13:36:07.262Z,12.23
2022-10-23T13:38:35.064Z,9.05
2022-10-23T13:41:03.447Z,9.80
2022-10-23T13:43:33.136Z,7.72
2022-10-23T13:46:00.376Z,8.80
2022-10-23T13:48:27.309Z,9.77
2022-10-23T13:50:54.340Z,8.75
2022-10-23T13:53:21.193Z,9.57
2022-10-23T13:55:52.533Z,6.38
2022-10-23T13:58:21.736Z,8.07
2022-10-23T14:00:49.601Z,5.97
2022-10-23T14:03:17.277Z,9.60
2022-10-23T14:05:44.191Z,7.22
2022-10-23T14:08:11.203Z,8.23
2022-10-23T14:10:38.012Z,7.10
2022-10-23T14:13:04.946Z,6.53
2022-10-23T14:15:31.874Z,11.23
2022-10-23T14:17:59.686Z,6.50
2022-10-23T14:20:29.425Z,6.85
2022-10-23T14:22:56.332Z,5.25
2022-10-23T14:25:23.179Z,8.02
2022-10-23T14:27:50.099Z,8.43
2022-10-23T14:30:17.044Z,6.13
2022-10-23T14:32:45.484Z,7.63
2022-10-23T14:35:12.614Z,5.50
2022-10-23T14:37:39.513Z,8.48
2022-10-23T14:40:07.207Z,6.20
2022-10-23T14:42:34.494Z,6.88
2022-10-23T14:45:02.657Z,6.15
2022-10-23T14:47:30.040Z,7.15
2022-10-23T14:49:57.380Z,5.85
2022-10-23T14:52:24.361Z,6.78
2022-10-23T14:54:53.154Z,6.70
2022-10-23T14:57:21.843Z,6.82
2022-10-23T14:59:49.176Z,5.32
2022-10-23T15:02:16.522Z,6.45
2022-10-23T15:04:43.549Z,5.88
2022-10-23T15:07:10.395Z,6.80
2022-10-23T15:09:37.482Z,7.35
2022-10-23T15:12:04.665Z,6.18
2022-10-23T15:14:31.807Z,5.88
2022-10-23T15:16:58.603Z,5.53
2022-10-23T15:19:25.468Z,5.78
2022-10-23T15:21:52.596Z,5.95
2022-10-23T15:24:20.831Z,5.65
2022-10-23T15:26:48.502Z,5.03
2022-10-23T15:29:15.664Z,6.53
2022-10-23T15:31:44.052Z,6.00
2022-10-23T15:34:13.063Z,6.30
2022-10-23T15:36:40.011Z,4.60
2022-10-23T15:39:08.942Z,5.50
2022-10-23T15:41:37.054Z,4.60
2022-10-23T15:44:04.282Z,6.32
2022-10-23T15:46:31.168Z,7.38
2022-10-23T15:48:58.019Z,4.82
2022-10-23T15:51:24.900Z,5.45
2022-10-23T15:53:51.786Z,5.35
2022-10-23T15:56:18.631Z,4.78
2022-10-23T15:58:45.729Z,5.93
2022-10-23T16:01:12.834Z,5.35
2022-10-23T16:03:39.827Z,4.68
2022-10-23T16:06:07.931Z,4.75
2022-10-23T16:08:34.811Z,5.45
2022-10-23T16:11:02.001Z,4.00
2022-10-23T16:13:28.911Z,4.68
2022-10-23T16:15:55.763Z,5.35
2022-10-23T16:18:23.012Z,5.72
2022-10-23T16:20:55.105Z,5.78
2022-10-23T16:23:22.308Z,5.05
2022-10-23T16:25:49.238Z,5.15
2022-10-23T16:28:16.074Z,5.32
2022-10-23T16:30:43.394Z,5.50
2022-10-23T16:33:10.301Z,5.40
2022-10-23T16:35:37.338Z,6.00
2022-10-23T16:38:12.321Z,4.95
2022-10-23T16:40:39.286Z,4.25
2022-10-23T16:43:25.000Z,5.03
2022-10-23T16:46:02.629Z,4.45
2022-10-23T16:48:30.099Z,5.65
2022-10-23T16:50:56.954Z,4.60
2022-10-23T16:53:28.817Z,6.10
2022-10-23T16:55:56.795Z,4.30
2022-10-23T16:58:27.300Z,4.88
2022-10-23T17:01:01.880Z,5.22
2022-10-23T17:03:29.963Z,4.45
2022-10-23T17:06:06.116Z,4.95
2022-10-23T17:08:35.908Z,4.60
2022-10-23T17:11:07.346Z,4.95
2022-10-23T17:13:34.783Z,5.18
2022-10-23T17:16:22.014Z,4.70
2022-10-23T17:18:48.974Z,5.80
2022-10-23T17:21:16.646Z,6.13
2022-10-23T17:23:43.694Z,6.65
2022-10-23T17:26:11.977Z,4.28
2022-10-23T17:28:41.648Z,4.63
2022-10-23T17:31:22.412Z,5.70
2022-10-23T17:33:51.557Z,4.85
2022-10-23T17:36:18.835Z,5.03
2022-10-23T17:38:45.995Z,5.03
2022-10-23T17:41:14.346Z,5.07
2022-10-23T17:43:41.432Z,5.47
2022-10-23T17:46:09.126Z,5.57
2022-10-23T17:48:36.010Z,4.72
2022-10-23T17:51:10.748Z,5.40
2022-10-23T17:53:38.379Z,5.10
2022-10-23T17:56:06.735Z,5.85
2022-10-23T17:58:34.008Z,5.30
2022-10-23T18:01:20.767Z,4.80
2022-10-23T18:03:47.900Z,6.22
2022-10-23T18:06:22.440Z,5.70
2022-10-23T18:08:51.720Z,5.93
2022-10-23T18:11:21.829Z,5.78
2022-10-23T18:13:49.126Z,5.68
2022-10-23T18:16:16.373Z,5.75
2022-10-23T18:18:48.184Z,5.70
2022-10-23T18:21:16.243Z,5.82
2022-10-23T18:23:43.171Z,5.60
2022-10-23T18:26:17.840Z,5.30
2022-10-23T18:28:45.596Z,5.70
2022-10-23T18:31:12.655Z,5.10
2022-10-23T18:33:39.690Z,5.07
2022-10-23T18:36:36.778Z,6.55
2022-10-23T18:39:04.435Z,5.95
2022-10-23T18:41:38.589Z,5.43
2022-10-23T18:44:05.680Z,6.32
2022-10-23T18:46:32.633Z,5.63
2022-10-23T18:48:59.507Z,5.60
2022-10-23T18:51:28.742Z,6.25
2022-10-23T18:53:55.737Z,6.03
2022-10-23T18:56:24.092Z,6.20
2022-10-23T18:58:51.256Z,5.97
2022-10-23T19:01:19.028Z,6.35
2022-10-23T19:03:46.090Z,6.35
2022-10-23T19:06:13.061Z,6.32
2022-10-23T19:08:41.133Z,6.85
2022-10-23T19:11:08.278Z,7.65
2022-10-23T19:13:39.134Z,6.97
2022-10-23T19:16:08.599Z,6.88
2022-10-23T19:18:35.438Z,6.20
2022-10-23T19:21:05.480Z,7.90
2022-10-23T19:23:35.667Z,7.22
2022-10-23T19:26:05.393Z,6.72
2022-10-23T19:28:36.696Z,8.88
2022-10-23T19:31:04.697Z,7.53
2022-10-23T19:33:32.649Z,7.18
2022-10-23T19:36:03.675Z,6.88
2022-10-23T19:38:32.574Z,7.20
2022-10-23T19:40:59.415Z,6.32
2022-10-23T19:43:26.229Z,8.13
2022-10-23T19:45:53.226Z,7.05
2022-10-23T19:48:20.144Z,7.95
2022-10-23T19:50:46.963Z,9.38
2022-10-23T19:53:13.828Z,7.10
2022-10-23T19:55:40.635Z,6.90
2022-10-23T19:58:07.445Z,7.30
2022-10-23T20:00:34.318Z,8.70
2022-10-23T20:03:01.153Z,7.00
2022-10-23T20:05:28.036Z,7.80
2022-10-23T20:07:55.141Z,7.90
2022-10-23T20:10:21.977Z,7.22
2022-10-23T20:12:56.761Z,6.95
2022-10-23T20:15:38.142Z,8.13
2022-10-23T20:18:05.284Z,8.25
2022-10-23T20:20:32.189Z,8.27
2022-10-23T20:22:59.076Z,7.78
2022-10-23T20:25:26.798Z,9.07
2022-10-23T20:27:53.601Z,7.35
2022-10-23T20:30:20.479Z,7.93
2022-10-23T20:32:47.356Z,7.68
2022-10-23T20:35:14.286Z,7.15
2022-10-23T20:37:41.403Z,8.35
2022-10-23T20:40:08.779Z,8.48
2022-10-23T20:42:35.586Z,8.75
2022-10-23T20:45:03.569Z,8.02
2022-10-23T20:47:30.527Z,8.63
2022-10-23T20:49:57.350Z,8.50
2022-10-23T20:52:24.538Z,9.30
2022-10-23T20:54:51.339Z,7.82
2022-10-23T20:57:20.640Z,8.30
2022-10-23T20:59:48.331Z,8.75
2022-10-23T21:02:15.302Z,8.38
2022-10-23T21:04:42.289Z,8.50
2022-10-23T21:07:10.882Z,8.75
2022-10-23T21:09:38.682Z,8.40
2022-10-23T21:12:06.672Z,7.50
2022-10-23T21:14:34.039Z,8.43
2022-10-23T21:17:00.870Z,8.60
2022-10-23T21:19:27.772Z,8.95
2022-10-23T21:21:54.868Z,10.65
2022-10-23T21:24:21.761Z,8.90
2022-10-23T21:26:48.629Z,8.73
2022-10-23T21:29:19.895Z,9.10
2022-10-23T21:31:58.189Z,8.82
2022-10-23T21:34:25.488Z,8.98
2022-10-23T21:37:12.971Z,9.15
2022-10-23T21:39:39.345Z,9.63
2022-10-23T21:42:06.226Z,9.43
2022-10-23T21:44:33.058Z,9.80
2022-10-23T21:46:59.969Z,10.02
2022-10-23T21:49:26.895Z,9.68
2022-10-23T21:51:55.078Z,10.52
2022-10-23T21:54:22.200Z,9.00
2022-10-23T21:56:53.579Z,10.60
2022-10-23T21:59:22.444Z,9.32
2022-10-23T22:01:49.410Z,10.00
2022-10-23T22:04:19.900Z,9.07
2022-10-23T22:06:47.492Z,8.85
2022-10-23T22:09:15.834Z,10.07
2022-10-23T22:11:42.746Z,9.27
2022-10-23T22:14:09.554Z,10.07
2022-10-23T22:16:36.486Z,9.98
2022-10-23T22:19:03.539Z,10.07
2022-10-23T22:21:30.630Z,10.48
2022-10-23T22:23:58.487Z,9.18
2022-10-23T22:26:30.369Z,10.52
2022-10-23T22:28:58.985Z,9.07
2022-10-23T22:31:29.186Z,9.27
2022-10-23T22:33:56.215Z,9.23
2022-10-23T22:36:23.138Z,10.20
2022-10-23T22:38:49.956Z,10.57
2022-10-23T22:41:16.840Z,10.30
2022-10-23T22:43:43.713Z,9.32
2022-10-23T22:46:15.469Z,9.25
2022-10-23T22:48:42.467Z,9.82
2022-10-23T22:51:10.945Z,8.50
2022-10-23T22:53:37.823Z,9.02
2022-10-23T22:56:08.765Z,8.95
2022-10-23T22:58:35.713Z,8.98
2022-10-23T23:01:10.238Z,11.07
2022-10-23T23:03:37.202Z,8.88
2022-10-23T23:06:04.885Z,9.20
2022-10-23T23:08:31.801Z,8.88
2022-10-23T23:10:58.679Z,9.02
2022-10-23T23:13:25.574Z,9.93
2022-10-23T23:15:52.573Z,9.40
2022-10-23T23:18:19.396Z,8.77
2022-10-23T23:20:46.245Z,9.15
2022-10-23T23:23:14.184Z,8.57
2022-10-23T23:25:47.960Z,8.60
2022-10-23T23:28:15.803Z,9.33
2022-10-23T23:30:42.846Z,8.88
2022-10-23T23:33:09.997Z,8.70
2022-10-23T23:35:44.064Z,8.18
2022-10-23T23:38:11.401Z,9.13
2022-10-23T23:40:38.334Z,9.23
2022-10-23T23:43:05.409Z,9.43
2022-10-23T23:45:32.369Z,8.70
2022-10-23T23:47:59.191Z,8.10
2022-10-23T23:50:27.981Z,8.40
2022-10-23T23:52:54.930Z,8.45
2022-10-23T23:55:21.809Z,8.07
2022-10-23T23:57:48.657Z,7.97
